Time;durP1;ratioP1;P1;durP2;ratioP2;P2;SDS_P1;SDS_P2;PMS_P1;PMS_P2;Temp;Humidity;BMP_temperature;BMP_pressure;BME280_temperature;BME280_humidity;BME280_pressure;Samples;Min_cycle;Max_cycle;Signal;HPM_P1;HPM_P2
2022/11/12 00:00:55;;;;;;;66.07;37.78;;;;;;;;;;4964807;28;20038;-78
2022/11/12 00:03:21;;;;;;;69.03;36.90;;;;;;;;;;4963968;28;20042;-77
2022/11/12 00:05:48;;;;;;;76.38;41.15;;;;;;;;;;4966312;28;20347;-75
2022/11/12 00:08:13;;;;;;;80.57;40.53;;;;;;;;;;4966454;28;20046;-76
2022/11/12 00:10:41;;;;;;;70.22;39.65;;;;;;;;;;4950081;28;20518;-77
2022/11/12 00:13:06;;;;;;;68.47;41.35;;;;;;;;;;4964885;28;20630;-76
2022/11/12 00:15:32;;;;;;;66.05;39.95;;;;;;;;;;4942070;28;20046;-76
2022/11/12 00:17:58;;;;;;;68.15;41.28;;;;;;;;;;4951892;28;20583;-76
2022/11/12 00:20:23;;;;;;;75.63;44.42;;;;;;;;;;4968379;28;20037;-75
2022/11/12 00:22:48;;;;;;;76.90;48.13;;;;;;;;;;4951027;28;20107;-76
2022/11/12 00:25:14;;;;;;;72.85;43.67;;;;;;;;;;4944942;28;20040;-76
2022/11/12 00:27:40;;;;;;;76.00;42.90;;;;;;;;;;4960960;28;20030;-76
2022/11/12 00:30:05;;;;;;;61.58;40.88;;;;;;;;;;4931805;28;20069;-77
2022/11/12 00:32:30;;;;;;;65.93;41.30;;;;;;;;;;4947617;28;20137;-75
2022/11/12 00:34:56;;;;;;;88.72;55.78;;;;;;;;;;4950377;28;20124;-78
2022/11/12 00:37:22;;;;;;;73.07;45.53;;;;;;;;;;4943797;28;20143;-78
2022/11/12 00:39:49;;;;;;;75.53;41.58;;;;;;;;;;4949464;28;20038;-77
2022/11/12 00:42:15;;;;;;;66.20;41.25;;;;;;;;;;4925307;28;20140;-75
2022/11/12 00:44:40;;;;;;;67.70;39.97;;;;;;;;;;4945983;28;20042;-78
2022/11/12 00:47:08;;;;;;;68.93;39.40;;;;;;;;;;4963814;28;20064;-77
2022/11/12 00:49:34;;;;;;;71.10;43.05;;;;;;;;;;4964146;28;20124;-78
2022/11/12 00:51:59;;;;;;;69.00;43.67;;;;;;;;;;4943995;28;20065;-77
2022/11/12 00:54:24;;;;;;;75.20;47.97;;;;;;;;;;4919659;28;20034;-78
2022/11/12 00:56:50;;;;;;;79.38;49.78;;;;;;;;;;4939034;28;20066;-77
2022/11/12 00:59:16;;;;;;;84.25;49.38;;;;;;;;;;4941734;28;20465;-75
2022/11/12 01:01:42;;;;;;;75.38;46.08;;;;;;;;;;4964892;28;20053;-77
2022/11/12 01:04:08;;;;;;;71.68;41.40;;;;;;;;;;4963438;28;20392;-75
2022/11/12 01:06:38;;;;;;;64.15;38.42;;;;;;;;;;4931392;28;20042;-77
2022/11/12 01:09:03;;;;;;;66.38;36.97;;;;;;;;;;4961151;28;20295;-77
2022/11/12 01:11:29;;;;;;;57.05;35.40;;;;;;;;;;4947237;28;20691;-77
2022/11/12 01:13:54;;;;;;;58.60;34.92;;;;;;;;;;4965331;28;20309;-76
2022/11/12 01:16:21;;;;;;;58.58;35.90;;;;;;;;;;4950574;28;20042;-77
2022/11/12 01:18:47;;;;;;;61.13;39.28;;;;;;;;;;4954739;28;20049;-77
2022/11/12 01:21:13;;;;;;;70.47;45.88;;;;;;;;;;4965327;28;20037;-77
2022/11/12 01:23:39;;;;;;;76.38;47.58;;;;;;;;;;4951055;28;20056;-77
2022/11/12 01:26:13;;;;;;;81.93;52.78;;;;;;;;;;4949739;28;20034;-77
2022/11/12 01:28:39;;;;;;;76.78;50.38;;;;;;;;;;4965069;28;20287;-77
2022/11/12 01:31:12;;;;;;;75.30;44.95;;;;;;;;;;4946806;28;20137;-77
2022/11/12 01:33:38;;;;;;;71.75;44.63;;;;;;;;;;4966565;28;20346;-77
2022/11/12 01:36:06;;;;;;;77.95;43.25;;;;;;;;;;4965380;28;20582;-77
2022/11/12 01:38:33;;;;;;;65.75;39.88;;;;;;;;;;4925334;28;20073;-77
2022/11/12 01:40:58;;;;;;;74.63;39.90;;;;;;;;;;4959652;28;20534;-77
2022/11/12 01:43:26;;;;;;;71.00;43.10;;;;;;;;;;4921975;28;21888;-77
2022/11/12 01:45:52;;;;;;;70.80;43.25;;;;;;;;;;4964523;28;20056;-76
2022/11/12 01:48:26;;;;;;;67.93;43.72;;;;;;;;;;4959057;28;20039;-77
2022/11/12 01:50:55;;;;;;;71.10;41.45;;;;;;;;;;4958293;28;20049;-77
2022/11/12 01:53:21;;;;;;;69.00;39.80;;;;;;;;;;4963673;28;20437;-77
2022/11/12 01:55:48;;;;;;;68.75;40.65;;;;;;;;;;4941716;28;20435;-77
2022/11/12 01:58:18;;;;;;;65.85;39.78;;;;;;;;;;4943280;28;20165;-77
2022/11/12 02:00:44;;;;;;;69.28;41.22;;;;;;;;;;4960871;28;20053;-77
2022/11/12 02:03:12;;;;;;;68.65;41.70;;;;;;;;;;4949840;28;20046;-76
2022/11/12 02:05:40;;;;;;;70.53;41.13;;;;;;;;;;4960338;28;20038;-77
2022/11/12 02:08:06;;;;;;;71.55;41.00;;;;;;;;;;4963774;28;20182;-76
2022/11/12 02:10:33;;;;;;;66.47;39.10;;;;;;;;;;4962145;28;20046;-77
2022/11/12 02:15:42;;;;;;;75.55;43.20;;;;;;;;;;4958071;28;20719;-77
2022/11/12 02:18:07;;;;;;;74.63;43.42;;;;;;;;;;4959936;28;20058;-77
2022/11/12 02:20:36;;;;;;;68.82;44.13;;;;;;;;;;4949643;28;20454;-77
2022/11/12 02:23:01;;;;;;;78.35;45.95;;;;;;;;;;4944023;28;20160;-77
2022/11/12 02:25:27;;;;;;;77.35;46.13;;;;;;;;;;4964593;28;20042;-77
2022/11/12 02:27:54;;;;;;;75.88;44.35;;;;;;;;;;4943971;28;20143;-77
2022/11/12 02:30:30;;;;;;;74.60;43.85;;;;;;;;;;4966098;28;20208;-77
2022/11/12 02:32:58;;;;;;;77.80;44.88;;;;;;;;;;4950224;28;20052;-77
2022/11/12 02:35:23;;;;;;;74.47;44.95;;;;;;;;;;4960507;28;20664;-77
2022/11/12 02:37:49;;;;;;;80.03;51.40;;;;;;;;;;4964627;28;20027;-77
2022/11/12 02:40:17;;;;;;;81.15;51.75;;;;;;;;;;4964549;28;20311;-76
2022/11/12 02:42:45;;;;;;;89.68;53.58;;;;;;;;;;4942477;28;20057;-75
2022/11/12 02:45:10;;;;;;;81.05;53.80;;;;;;;;;;4940155;28;20099;-76
2022/11/12 02:47:36;;;;;;;74.90;46.63;;;;;;;;;;4965069;28;20041;-77
2022/11/12 02:50:02;;;;;;;73.53;44.90;;;;;;;;;;4964536;28;20740;-77
2022/11/12 02:52:27;;;;;;;78.43;47.33;;;;;;;;;;4962328;28;20072;-77
2022/11/12 02:54:52;;;;;;;78.57;48.05;;;;;;;;;;4962344;28;20751;-77
2022/11/12 02:57:18;;;;;;;86.25;48.03;;;;;;;;;;4946778;28;20116;-77
2022/11/12 02:59:43;;;;;;;79.00;46.15;;;;;;;;;;4942103;28;20034;-77
2022/11/12 03:02:08;;;;;;;78.07;46.45;;;;;;;;;;4947464;28;20124;-77
2022/11/12 03:04:34;;;;;;;81.85;47.45;;;;;;;;;;4967404;28;20041;-77
2022/11/12 03:06:59;;;;;;;81.20;48.50;;;;;;;;;;4951227;28;20675;-77
2022/11/12 03:09:24;;;;;;;85.95;49.17;;;;;;;;;;4966004;28;20029;-77
2022/11/12 03:11:49;;;;;;;82.15;46.88;;;;;;;;;;4961276;28;20050;-77
2022/11/12 03:14:15;;;;;;;81.25;46.55;;;;;;;;;;4949990;28;20034;-77
2022/11/12 03:16:43;;;;;;;77.28;48.03;;;;;;;;;;4951396;28;20488;-77
2022/11/12 03:19:08;;;;;;;82.00;49.80;;;;;;;;;;4967131;28;20178;-77
2022/11/12 03:21:36;;;;;;;84.78;50.78;;;;;;;;;;4964809;28;20466;-77
2022/11/12 03:24:04;;;;;;;83.80;50.83;;;;;;;;;;4963678;28;20489;-77
2022/11/12 03:26:29;;;;;;;88.40;50.97;;;;;;;;;;4926161;28;20034;-77
2022/11/12 03:28:57;;;;;;;76.18;45.72;;;;;;;;;;4963536;28;20043;-77
2022/11/12 03:31:22;;;;;;;88.40;51.97;;;;;;;;;;4944040;28;20111;-77
2022/11/12 03:33:48;;;;;;;77.45;47.33;;;;;;;;;;4952803;28;20748;-77
2022/11/12 03:36:13;;;;;;;82.53;50.45;;;;;;;;;;4966206;28;20136;-77
2022/11/12 03:38:38;;;;;;;80.13;48.10;;;;;;;;;;4952394;28;20391;-77
2022/11/12 03:41:06;;;;;;;78.07;47.63;;;;;;;;;;4965684;28;20649;-77
2022/11/12 03:43:32;;;;;;;79.20;46.13;;;;;;;;;;4945850;28;20126;-77
2022/11/12 03:46:00;;;;;;;79.70;47.40;;;;;;;;;;4957930;28;20053;-77
2022/11/12 03:48:26;;;;;;;88.78;51.97;;;;;;;;;;4955308;28;22072;-77
2022/11/12 03:50:51;;;;;;;89.25;52.03;;;;;;;;;;4944693;28;20076;-77
2022/11/12 03:53:20;;;;;;;94.30;53.70;;;;;;;;;;4950387;28;20113;-77
2022/11/12 03:55:47;;;;;;;101.82;55.05;;;;;;;;;;4945825;28;20709;-77
2022/11/12 03:58:13;;;;;;;100.00;55.60;;;;;;;;;;4966367;28;20758;-77
2022/11/12 04:00:38;;;;;;;106.28;56.10;;;;;;;;;;4946734;28;20045;-77
2022/11/12 04:03:04;;;;;;;117.20;59.45;;;;;;;;;;4948812;28;20541;-77
2022/11/12 04:08:37;;;;;;;144.98;79.15;;;;;;;;;;4963735;28;20037;-77
2022/11/12 04:11:11;;;;;;;164.32;66.57;;;;;;;;;;4949846;28;20565;-77
2022/11/12 04:13:40;;;;;;;125.65;54.45;;;;;;;;;;4963536;28;20064;-77
2022/11/12 04:21:54;;;;;;;147.52;55.95;;;;;;;;;;4962917;28;20046;-77
2022/11/12 04:27:18;;;;;;;145.55;56.05;;;;;;;;;;4966763;28;20345;-77
2022/11/12 04:32:31;;;;;;;132.40;53.47;;;;;;;;;;4964639;28;20085;-76
2022/11/12 04:34:57;;;;;;;169.40;59.42;;;;;;;;;;4959879;28;20310;-76
2022/11/12 04:37:24;;;;;;;174.88;63.10;;;;;;;;;;4957866;28;20529;-76
2022/11/12 04:39:50;;;;;;;213.60;67.28;;;;;;;;;;4964478;28;20244;-76
2022/11/12 04:45:05;;;;;;;120.35;54.15;;;;;;;;;;4966268;28;20426;-76
2022/11/12 04:47:34;;;;;;;175.38;59.42;;;;;;;;;;4947024;28;21899;-76
2022/11/12 04:50:04;;;;;;;143.77;60.25;;;;;;;;;;4961630;28;20096;-77
2022/11/12 04:52:29;;;;;;;132.45;56.50;;;;;;;;;;4962721;28;20046;-76
2022/11/12 04:54:55;;;;;;;166.52;58.60;;;;;;;;;;4964904;28;20045;-76
2022/11/12 04:57:23;;;;;;;142.00;54.97;;;;;;;;;;4944510;28;20574;-78
2022/11/12 04:59:49;;;;;;;124.30;50.15;;;;;;;;;;4962505;28;20104;-75
2022/11/12 05:02:15;;;;;;;126.13;52.78;;;;;;;;;;4943277;28;20526;-76
2022/11/12 05:04:45;;;;;;;132.20;53.58;;;;;;;;;;4961485;28;20046;-77
2022/11/12 05:07:11;;;;;;;157.55;56.30;;;;;;;;;;4963868;28;22210;-78
2022/11/12 05:09:38;;;;;;;145.95;59.55;;;;;;;;;;4960372;28;20045;-76
2022/11/12 05:12:04;;;;;;;145.48;65.30;;;;;;;;;;4961152;28;20249;-78
2022/11/12 05:14:29;;;;;;;171.80;84.55;;;;;;;;;;4925297;28;20038;-75
2022/11/12 05:16:55;;;;;;;274.83;131.18;;;;;;;;;;4940111;28;20048;-77
2022/11/12 05:19:22;;;;;;;220.30;119.65;;;;;;;;;;4941689;28;20038;-76
2022/11/12 05:22:06;;;;;;;192.25;98.85;;;;;;;;;;4962491;28;20502;-77
2022/11/12 05:24:33;;;;;;;184.38;74.95;;;;;;;;;;4945201;28;20038;-78
2022/11/12 05:26:59;;;;;;;174.18;71.40;;;;;;;;;;4949215;28;20084;-78
2022/11/12 05:29:27;;;;;;;170.65;68.85;;;;;;;;;;4963237;28;20050;-77
2022/11/12 05:31:52;;;;;;;141.65;58.05;;;;;;;;;;4959885;28;21583;-76
2022/11/12 05:34:20;;;;;;;125.28;53.35;;;;;;;;;;4960235;28;20042;-76
2022/11/12 05:36:46;;;;;;;118.32;52.05;;;;;;;;;;4962959;28;20050;-76
2022/11/12 05:39:13;;;;;;;106.68;48.05;;;;;;;;;;4963062;28;20129;-76
2022/11/12 05:41:39;;;;;;;114.82;48.95;;;;;;;;;;4951108;28;20069;-78
2022/11/12 05:44:06;;;;;;;119.82;54.65;;;;;;;;;;4947622;28;20124;-76
2022/11/12 05:46:32;;;;;;;127.53;56.03;;;;;;;;;;4957796;28;20160;-77
2022/11/12 05:48:57;;;;;;;133.10;57.75;;;;;;;;;;4961944;28;20099;-77
2022/11/12 05:51:22;;;;;;;128.45;57.10;;;;;;;;;;4947676;28;20081;-77
2022/11/12 05:53:50;;;;;;;143.05;59.35;;;;;;;;;;4948900;28;20306;-77
2022/11/12 05:56:18;;;;;;;142.20;58.28;;;;;;;;;;4960101;28;20128;-77
2022/11/12 05:58:43;;;;;;;131.38;56.42;;;;;;;;;;4962418;28;20073;-77
2022/11/12 06:01:09;;;;;;;132.38;56.10;;;;;;;;;;4963791;28;22150;-77
2022/11/12 06:03:37;;;;;;;134.43;55.75;;;;;;;;;;4965839;28;21438;-77
2022/11/12 06:06:02;;;;;;;136.75;57.30;;;;;;;;;;4963994;28;20624;-76
2022/11/12 06:08:27;;;;;;;130.18;55.40;;;;;;;;;;4923394;28;20479;-77
2022/11/12 06:10:54;;;;;;;127.57;54.92;;;;;;;;;;4960623;28;20697;-77
2022/11/12 06:13:20;;;;;;;124.95;52.88;;;;;;;;;;4961410;28;21989;-77
2022/11/12 06:15:45;;;;;;;134.07;56.05;;;;;;;;;;4962408;28;20037;-77
2022/11/12 06:18:11;;;;;;;128.18;54.13;;;;;;;;;;4944702;28;20042;-77
2022/11/12 06:20:36;;;;;;;126.03;54.47;;;;;;;;;;4947300;28;20144;-77
2022/11/12 06:23:02;;;;;;;138.55;56.72;;;;;;;;;;4963233;28;20659;-77
2022/11/12 06:25:28;;;;;;;130.13;55.03;;;;;;;;;;4960329;28;20083;-77
2022/11/12 06:27:53;;;;;;;127.38;52.78;;;;;;;;;;4958967;28;20760;-78
2022/11/12 06:30:19;;;;;;;138.57;54.22;;;;;;;;;;4921864;28;20069;-78
2022/11/12 06:32:45;;;;;;;130.60;53.58;;;;;;;;;;4924822;28;20291;-78
2022/11/12 06:35:10;;;;;;;131.80;54.22;;;;;;;;;;4957494;28;20294;-78
2022/11/12 06:37:36;;;;;;;139.23;54.78;;;;;;;;;;4964453;28;20484;-76
2022/11/12 06:40:01;;;;;;;135.80;53.97;;;;;;;;;;4944819;28;20040;-76
2022/11/12 06:42:32;;;;;;;135.30;53.65;;;;;;;;;;4947830;28;20123;-76
2022/11/12 06:44:57;;;;;;;141.73;55.47;;;;;;;;;;4921523;28;20049;-77
2022/11/12 06:47:23;;;;;;;129.13;52.28;;;;;;;;;;4961261;28;20034;-77
2022/11/12 06:49:48;;;;;;;144.50;56.92;;;;;;;;;;4924877;28;20261;-77
2022/11/12 06:52:14;;;;;;;133.75;55.90;;;;;;;;;;4940877;28;20292;-77
2022/11/12 06:54:39;;;;;;;133.40;55.33;;;;;;;;;;4960770;28;20529;-76
2022/11/12 06:57:04;;;;;;;135.10;53.83;;;;;;;;;;4962478;28;20470;-76
2022/11/12 06:59:30;;;;;;;144.52;56.25;;;;;;;;;;4947639;28;20042;-77
2022/11/12 07:01:57;;;;;;;146.70;56.78;;;;;;;;;;4949525;28;20254;-77
2022/11/12 07:04:25;;;;;;;186.73;62.83;;;;;;;;;;4919331;28;20135;-77
2022/11/12 07:06:52;;;;;;;182.68;62.13;;;;;;;;;;4956012;28;20622;-77
2022/11/12 07:09:20;;;;;;;184.07;61.33;;;;;;;;;;4940454;28;20120;-77
2022/11/12 07:11:50;;;;;;;178.55;58.95;;;;;;;;;;4954360;28;20056;-77
2022/11/12 07:14:15;;;;;;;162.95;54.47;;;;;;;;;;4930910;28;20732;-76
2022/11/12 07:16:41;;;;;;;154.05;53.88;;;;;;;;;;4962453;28;20057;-77
2022/11/12 07:19:09;;;;;;;149.70;54.15;;;;;;;;;;4948770;28;20034;-76
2022/11/12 07:21:35;;;;;;;152.75;53.65;;;;;;;;;;4921859;28;20576;-76
2022/11/12 07:24:01;;;;;;;156.82;55.10;;;;;;;;;;4961872;28;20053;-78
2022/11/12 07:26:28;;;;;;;166.63;57.13;;;;;;;;;;4891928;28;20485;-77
2022/11/12 07:28:55;;;;;;;160.63;57.05;;;;;;;;;;4952740;28;20048;-76
2022/11/12 07:31:21;;;;;;;160.77;59.03;;;;;;;;;;4947706;28;20287;-77
2022/11/12 07:33:49;;;;;;;182.10;63.97;;;;;;;;;;4963653;28;20038;-76
2022/11/12 07:36:18;;;;;;;187.38;63.75;;;;;;;;;;4948853;28;20069;-77
2022/11/12 07:38:44;;;;;;;176.98;61.75;;;;;;;;;;4961131;28;20146;-77
2022/11/12 07:41:11;;;;;;;152.82;56.92;;;;;;;;;;4955969;28;20184;-77
2022/11/12 07:43:37;;;;;;;147.15;55.72;;;;;;;;;;4960733;28;20157;-77
2022/11/12 07:46:21;;;;;;;141.35;50.33;;;;;;;;;;4963569;28;20064;-77
2022/11/12 07:48:47;;;;;;;143.15;50.00;;;;;;;;;;4952836;28;20345;-77
2022/11/12 07:51:13;;;;;;;132.60;49.35;;;;;;;;;;4962960;28;20253;-77
2022/11/12 07:53:42;;;;;;;127.10;46.40;;;;;;;;;;4950626;28;20437;-78
2022/11/12 07:56:14;;;;;;;120.40;44.65;;;;;;;;;;4968957;28;20453;-77
2022/11/12 07:58:40;;;;;;;121.20;47.13;;;;;;;;;;4946767;28;20061;-77
2022/11/12 08:01:07;;;;;;;145.27;53.08;;;;;;;;;;4966324;28;20064;-75
2022/11/12 08:03:32;;;;;;;145.60;54.15;;;;;;;;;;4943718;28;20041;-77
2022/11/12 08:05:59;;;;;;;145.85;52.50;;;;;;;;;;4940557;28;20154;-77
2022/11/12 08:08:28;;;;;;;140.27;51.30;;;;;;;;;;4963775;28;20711;-77
2022/11/12 08:10:55;;;;;;;141.27;53.40;;;;;;;;;;4949219;28;20311;-76
2022/11/12 09:33:45;;;;;;;103.88;49.75;;;;;;;;;;4975796;28;20045;-73
2022/11/12 10:23:24;;;;;;;52.40;32.35;;;;;;;;;;4975514;28;20118;-77
2022/11/12 11:17:19;;;;;;;28.45;14.73;;;;;;;;;;4920733;28;20105;-78
2022/11/12 11:19:45;;;;;;;19.90;12.82;;;;;;;;;;4898682;28;20233;-78
2022/11/12 11:22:10;;;;;;;22.20;13.23;;;;;;;;;;4901998;28;20030;-78
2022/11/12 11:24:38;;;;;;;21.98;12.95;;;;;;;;;;4928322;28;20042;-77
2022/11/12 11:27:03;;;;;;;20.23;12.93;;;;;;;;;;4912659;28;20218;-76
2022/11/12 11:29:31;;;;;;;21.52;12.15;;;;;;;;;;4927938;28;20189;-76
2022/11/12 11:32:03;;;;;;;17.40;10.68;;;;;;;;;;4936058;28;20047;-75
2022/11/12 11:34:29;;;;;;;18.58;10.98;;;;;;;;;;4945269;28;20566;-76
2022/11/12 11:36:57;;;;;;;16.88;12.35;;;;;;;;;;4928916;28;20031;-76
2022/11/12 11:39:30;;;;;;;16.83;11.60;;;;;;;;;;4945854;28;20105;-75
2022/11/12 11:42:10;;;;;;;15.65;10.60;;;;;;;;;;4944172;28;20109;-76
2022/11/12 11:44:38;;;;;;;16.63;10.18;;;;;;;;;;4929943;28;20037;-76
2022/11/12 11:47:07;;;;;;;15.65;10.82;;;;;;;;;;4944208;28;20038;-76
2022/11/12 11:49:52;;;;;;;15.88;10.18;;;;;;;;;;4926836;28;20041;-76
2022/11/12 11:52:36;;;;;;;15.20;7.60;;;;;;;;;;4943482;28;20042;-76
2022/11/12 11:55:14;;;;;;;14.18;7.47;;;;;;;;;;4907848;28;20245;-76
2022/11/12 11:57:46;;;;;;;12.43;7.40;;;;;;;;;;4946225;28;20050;-75
2022/11/12 12:00:24;;;;;;;13.25;6.63;;;;;;;;;;4945861;28;20069;-77
2022/11/12 12:02:55;;;;;;;16.27;8.18;;;;;;;;;;4943934;28;20030;-77
2022/11/12 12:05:33;;;;;;;12.15;5.65;;;;;;;;;;4918613;28;20684;-77
2022/11/12 12:08:05;;;;;;;10.10;5.93;;;;;;;;;;4934342;28;20045;-77
2022/11/12 12:10:45;;;;;;;12.38;6.18;;;;;;;;;;4927669;28;20638;-77
2022/11/12 12:13:26;;;;;;;12.27;6.22;;;;;;;;;;4894283;28;20697;-77
2022/11/12 12:16:10;;;;;;;10.40;5.78;;;;;;;;;;4923950;28;20034;-76
2022/11/12 12:19:00;;;;;;;13.73;6.60;;;;;;;;;;4911477;28;20121;-78
2022/11/12 12:21:30;;;;;;;14.27;6.85;;;;;;;;;;4953603;28;20045;-74
2022/11/12 12:24:04;;;;;;;26.90;18.10;;;;;;;;;;4973074;28;20045;-75
2022/11/12 12:26:38;;;;;;;16.35;10.05;;;;;;;;;;4965139;28;20549;-77
2022/11/12 12:29:13;;;;;;;12.65;7.15;;;;;;;;;;4951789;28;20565;-74
2022/11/12 12:31:43;;;;;;;11.23;7.32;;;;;;;;;;4967803;28;20038;-76
2022/11/12 12:34:18;;;;;;;9.48;6.07;;;;;;;;;;4967870;28;20033;-77
2022/11/12 12:36:44;;;;;;;10.43;5.93;;;;;;;;;;4945088;28;20689;-75
2022/11/12 12:39:28;;;;;;;9.18;6.75;;;;;;;;;;4949349;28;20250;-74
2022/11/12 12:42:08;;;;;;;9.60;5.55;;;;;;;;;;4978494;28;20638;-76
2022/11/12 12:47:42;;;;;;;7.93;5.20;;;;;;;;;;4934167;28;20046;-75
2022/11/12 12:50:14;;;;;;;9.57;5.72;;;;;;;;;;4961871;28;20046;-76
2022/11/12 12:52:58;;;;;;;13.65;6.60;;;;;;;;;;4989515;28;20121;-76
2022/11/12 12:55:43;;;;;;;12.20;6.50;;;;;;;;;;4991641;28;20517;-76
2022/11/12 12:58:18;;;;;;;13.18;7.10;;;;;;;;;;4985266;28;20031;-76
2022/11/12 13:00:48;;;;;;;10.35;6.82;;;;;;;;;;4990898;28;20117;-76
2022/11/12 13:03:33;;;;;;;10.77;6.82;;;;;;;;;;4970943;28;20043;-76
2022/11/12 13:06:14;;;;;;;10.20;6.43;;;;;;;;;;4977676;28;20068;-76
2022/11/12 13:08:39;;;;;;;8.38;6.32;;;;;;;;;;4980550;28;20033;-76
2022/11/12 13:11:05;;;;;;;10.18;6.22;;;;;;;;;;4957414;28;20061;-76
2022/11/12 13:13:37;;;;;;;8.40;6.00;;;;;;;;;;4978098;28;20037;-76
2022/11/12 13:16:02;;;;;;;9.10;6.63;;;;;;;;;;4953556;28;20041;-76
2022/11/12 13:18:37;;;;;;;10.07;6.78;;;;;;;;;;4960898;28;20057;-76
2022/11/12 13:21:09;;;;;;;11.18;6.20;;;;;;;;;;4938771;28;20157;-76
2022/11/12 13:24:05;;;;;;;8.52;6.00;;;;;;;;;;4942494;28;20095;-76
2022/11/12 13:26:44;;;;;;;8.27;5.80;;;;;;;;;;4964846;28;20038;-76
2022/11/12 13:29:28;;;;;;;9.65;5.65;;;;;;;;;;4961939;28;20069;-76
2022/11/12 13:32:12;;;;;;;10.63;6.13;;;;;;;;;;4957771;28;21804;-76
2022/11/12 13:34:38;;;;;;;8.13;5.43;;;;;;;;;;4954883;28;20520;-76
2022/11/12 13:37:04;;;;;;;7.80;5.28;;;;;;;;;;4962143;28;20041;-76
2022/11/12 13:39:37;;;;;;;9.20;5.20;;;;;;;;;;4943909;28;20060;-76
2022/11/12 13:44:58;;;;;;;7.72;4.63;;;;;;;;;;4961478;28;20045;-75
2022/11/12 13:47:27;;;;;;;7.32;4.60;;;;;;;;;;4935553;28;20042;-75
2022/11/12 13:49:53;;;;;;;7.32;4.70;;;;;;;;;;4962831;28;20047;-75
2022/11/12 13:52:22;;;;;;;6.25;3.67;;;;;;;;;;4964462;28;20585;-74
2022/11/12 13:54:59;;;;;;;6.10;4.30;;;;;;;;;;4942569;28;20041;-76
2022/11/12 13:57:26;;;;;;;8.25;3.95;;;;;;;;;;4945681;28;20832;-76
2022/11/12 14:00:26;;;;;;;5.80;3.92;;;;;;;;;;4956533;28;20034;-76
2022/11/12 14:02:57;;;;;;;6.00;3.90;;;;;;;;;;4930479;28;20157;-74
2022/11/12 14:05:33;;;;;;;7.70;4.20;;;;;;;;;;4963456;28;20588;-76
2022/11/12 14:08:09;;;;;;;5.72;4.22;;;;;;;;;;4961746;28;20057;-76
2022/11/12 14:10:46;;;;;;;6.88;3.90;;;;;;;;;;4964511;28;20457;-76
2022/11/12 14:13:21;;;;;;;7.47;4.32;;;;;;;;;;4943490;28;20064;-76
2022/11/12 14:16:06;;;;;;;6.53;4.50;;;;;;;;;;4962718;28;20166;-75
2022/11/12 14:18:50;;;;;;;6.05;4.43;;;;;;;;;;4962701;28;20184;-76
2022/11/12 14:21:16;;;;;;;9.10;5.28;;;;;;;;;;4938758;28;20087;-76
2022/11/12 14:23:44;;;;;;;6.60;4.68;;;;;;;;;;4966616;28;20037;-76
2022/11/12 14:26:11;;;;;;;7.22;4.30;;;;;;;;;;4963762;28;20486;-76
2022/11/12 14:28:38;;;;;;;6.70;4.40;;;;;;;;;;4945577;28;20809;-75
2022/11/12 14:31:10;;;;;;;6.40;4.28;;;;;;;;;;4960914;28;20365;-75
2022/11/12 14:33:35;;;;;;;9.48;4.47;;;;;;;;;;4967956;28;20310;-77
2022/11/12 14:36:07;;;;;;;7.53;4.22;;;;;;;;;;4958992;28;20038;-77
2022/11/12 14:38:36;;;;;;;5.88;4.35;;;;;;;;;;4964573;28;20037;-77
2022/11/12 14:41:09;;;;;;;7.35;4.35;;;;;;;;;;4966363;28;20140;-75
2022/11/12 14:43:35;;;;;;;9.07;4.15;;;;;;;;;;4964401;28;20515;-75
2022/11/12 14:46:01;;;;;;;7.30;4.68;;;;;;;;;;4967338;28;20464;-77
2022/11/12 14:48:27;;;;;;;6.18;4.28;;;;;;;;;;4960940;28;20736;-76
2022/11/12 14:51:01;;;;;;;6.25;4.40;;;;;;;;;;4966109;28;20279;-75
2022/11/12 14:53:30;;;;;;;6.60;4.47;;;;;;;;;;4962432;28;20122;-76
2022/11/12 14:55:56;;;;;;;5.90;3.92;;;;;;;;;;4961751;28;20591;-75
2022/11/12 14:58:23;;;;;;;8.57;4.05;;;;;;;;;;4960624;28;20045;-75
2022/11/12 15:00:52;;;;;;;6.43;4.25;;;;;;;;;;4962157;28;20049;-75
2022/11/12 15:03:29;;;;;;;6.30;4.15;;;;;;;;;;4965083;28;20498;-76
2022/11/12 15:06:15;;;;;;;5.60;4.00;;;;;;;;;;4960630;28;20045;-76
2022/11/12 15:08:41;;;;;;;9.80;4.25;;;;;;;;;;4967625;28;20143;-76
2022/11/12 15:11:32;;;;;;;7.55;4.28;;;;;;;;;;4954705;28;20046;-76
2022/11/12 15:14:00;;;;;;;6.25;4.00;;;;;;;;;;4929863;28;20379;-76
2022/11/12 15:16:34;;;;;;;7.10;3.70;;;;;;;;;;4965985;28;20037;-76
2022/11/12 15:19:14;;;;;;;6.72;4.22;;;;;;;;;;4964410;28;20351;-78
2022/11/12 15:21:43;;;;;;;6.53;3.92;;;;;;;;;;4962612;28;20137;-75
2022/11/12 15:24:11;;;;;;;6.47;4.03;;;;;;;;;;4960578;28;20837;-75
2022/11/12 15:26:38;;;;;;;5.97;3.97;;;;;;;;;;4945526;28;20783;-75
2022/11/12 15:29:10;;;;;;;7.88;4.25;;;;;;;;;;4962544;28;20413;-75
2022/11/12 15:31:49;;;;;;;7.30;4.38;;;;;;;;;;4959980;28;20046;-75
2022/11/12 15:34:26;;;;;;;6.07;4.13;;;;;;;;;;4948387;28;20038;-75
2022/11/12 15:36:54;;;;;;;6.75;4.20;;;;;;;;;;4962497;28;20658;-75
2022/11/12 15:39:19;;;;;;;7.15;3.63;;;;;;;;;;4960418;28;20900;-76
2022/11/12 15:41:45;;;;;;;7.60;4.18;;;;;;;;;;4944155;28;20045;-76
2022/11/12 15:44:11;;;;;;;8.00;4.38;;;;;;;;;;4963916;28;20041;-76
2022/11/12 15:46:37;;;;;;;5.63;3.50;;;;;;;;;;4953096;28;20231;-75
2022/11/12 15:49:09;;;;;;;6.50;3.65;;;;;;;;;;4963702;28;20038;-76
2022/11/12 15:51:35;;;;;;;6.22;3.40;;;;;;;;;;4963824;28;20050;-76
2022/11/12 15:54:00;;;;;;;6.30;3.78;;;;;;;;;;4954865;28;20591;-76
2022/11/12 15:56:25;;;;;;;5.55;3.58;;;;;;;;;;4943067;28;20042;-76
2022/11/12 15:58:51;;;;;;;4.82;3.67;;;;;;;;;;4964920;28;20038;-76
2022/11/12 16:01:16;;;;;;;7.32;4.05;;;;;;;;;;4941231;28;20253;-76
2022/11/12 16:03:42;;;;;;;7.25;4.10;;;;;;;;;;4965973;28;20041;-76
2022/11/12 16:06:09;;;;;;;8.82;4.35;;;;;;;;;;4931991;28;20124;-76
2022/11/12 16:08:35;;;;;;;8.18;4.35;;;;;;;;;;4970688;28;20045;-76
2022/11/12 16:11:00;;;;;;;7.13;4.07;;;;;;;;;;4954023;28;20064;-77
2022/11/12 16:13:27;;;;;;;9.55;5.40;;;;;;;;;;4970069;28;20482;-77
2022/11/12 16:15:57;;;;;;;7.55;4.68;;;;;;;;;;4967364;28;20042;-77
2022/11/12 16:18:26;;;;;;;11.55;6.20;;;;;;;;;;4976999;28;20052;-75
2022/11/12 16:20:54;;;;;;;11.10;5.75;;;;;;;;;;4970072;28;20049;-75
2022/11/12 16:23:19;;;;;;;9.10;5.47;;;;;;;;;;4959686;28;20049;-77
2022/11/12 16:25:46;;;;;;;9.98;7.88;;;;;;;;;;4945425;28;20923;-77
2022/11/12 16:28:13;;;;;;;12.18;8.27;;;;;;;;;;4940778;28;20275;-77
2022/11/12 16:30:38;;;;;;;16.23;12.15;;;;;;;;;;4951027;28;20073;-77
2022/11/12 16:33:04;;;;;;;18.80;13.25;;;;;;;;;;4939005;28;20668;-77
2022/11/12 16:35:31;;;;;;;19.38;14.68;;;;;;;;;;4967352;28;20033;-77
2022/11/12 16:37:57;;;;;;;17.35;13.90;;;;;;;;;;4969368;28;20520;-77
2022/11/12 16:40:26;;;;;;;16.27;11.30;;;;;;;;;;4967880;28;20046;-77
2022/11/12 16:42:52;;;;;;;17.50;10.90;;;;;;;;;;4951110;28;20033;-77
2022/11/12 16:45:30;;;;;;;17.58;11.50;;;;;;;;;;4951635;28;20306;-77
2022/11/12 16:47:57;;;;;;;14.50;11.93;;;;;;;;;;4969931;28;20496;-77
2022/11/12 16:50:24;;;;;;;17.30;11.55;;;;;;;;;;4969139;28;20083;-77
2022/11/12 16:52:49;;;;;;;17.05;13.32;;;;;;;;;;4968696;28;20559;-77
2022/11/12 16:55:14;;;;;;;17.80;12.52;;;;;;;;;;4919548;28;20050;-77
2022/11/12 16:57:41;;;;;;;19.42;12.73;;;;;;;;;;4924118;28;20038;-76
2022/11/12 17:00:09;;;;;;;19.08;13.70;;;;;;;;;;4962670;28;20039;-77
2022/11/12 17:02:37;;;;;;;18.55;12.82;;;;;;;;;;4959061;28;20065;-77
2022/11/12 17:05:03;;;;;;;20.38;13.23;;;;;;;;;;4979855;28;20047;-77
2022/11/12 17:07:28;;;;;;;19.85;13.23;;;;;;;;;;4979008;28;20042;-77
2022/11/12 17:09:56;;;;;;;19.58;13.38;;;;;;;;;;4975853;28;20523;-77
2022/11/12 17:12:21;;;;;;;20.40;13.65;;;;;;;;;;4978096;28;22428;-76
2022/11/12 17:14:49;;;;;;;20.30;13.25;;;;;;;;;;4952461;28;20104;-77
2022/11/12 17:17:15;;;;;;;21.35;13.82;;;;;;;;;;4977926;28;20060;-77
2022/11/12 17:19:40;;;;;;;22.85;14.38;;;;;;;;;;4964590;28;20768;-77
2022/11/12 17:22:06;;;;;;;21.15;15.68;;;;;;;;;;4978774;28;20072;-77
2022/11/12 17:24:31;;;;;;;23.17;16.83;;;;;;;;;;4979423;28;20038;-77
2022/11/12 17:26:58;;;;;;;25.98;17.30;;;;;;;;;;4979568;28;20166;-76
2022/11/12 17:29:29;;;;;;;26.17;17.63;;;;;;;;;;4968822;28;20038;-77
2022/11/12 17:31:54;;;;;;;25.67;16.67;;;;;;;;;;4971265;28;20049;-77
2022/11/12 17:34:22;;;;;;;23.15;16.40;;;;;;;;;;4956009;28;20065;-77
2022/11/12 17:36:47;;;;;;;29.30;17.17;;;;;;;;;;4964638;28;20038;-77
2022/11/12 17:39:12;;;;;;;24.48;16.33;;;;;;;;;;4961917;28;20038;-77
2022/11/12 17:41:38;;;;;;;29.90;18.33;;;;;;;;;;4974303;28;20109;-77
2022/11/12 17:44:06;;;;;;;31.27;20.42;;;;;;;;;;4977635;28;20035;-77
2022/11/12 17:46:35;;;;;;;31.40;22.27;;;;;;;;;;4969788;28;20053;-77
2022/11/12 17:49:00;;;;;;;35.38;24.75;;;;;;;;;;4952587;28;20155;-77
2022/11/12 17:51:26;;;;;;;37.20;27.20;;;;;;;;;;4976127;28;20038;-76
2022/11/12 17:53:52;;;;;;;35.88;23.63;;;;;;;;;;4949170;28;20045;-76